Terminal Aerodrome Forecast
Issued by NWS Louisville, KY

Home | Current Version | Previous Version | Text Only | Print | Product List | Glossary On
Versions: 1 2 3 4 5 6 7 8 9 10 11 12 13 14
000
FTUS43 KLMK 071700
TAFSDF
TAF
KSDF 071738Z 0718/0824 19011KT 4SM -SHRA BR VCTS SCT025CB BKN050
      TEMPO 0718/0722 VRB15G25KT 3SM -TSRA BKN015CB
     FM072200 24013KT P6SM -SHRA VCTS BKN040CB
     FM080100 24008KT 6SM -SHRA BKN025
     FM080900 23007KT 3SM -SHRA BR BKN010
     FM081500 21008KT 5SM BR VCSH BKN015=

USA.gov is the U.S. government's official web portal to all federal, state and local government web resources and services.